createdAt,value
2019-02-04T00:00:58.643Z,-1.28
2019-02-04T00:03:27.665Z,-1.07
2019-02-04T00:05:56.638Z,-1.07
2019-02-04T00:08:26.042Z,-1.08
2019-02-04T00:10:55.028Z,-1.11
2019-02-04T00:13:24.027Z,-1.12
2019-02-04T00:15:53.023Z,-1.15
2019-02-04T00:18:22.029Z,-1.17
2019-02-04T00:20:51.020Z,-1.18
2019-02-04T00:23:20.373Z,-1.19
2019-02-04T00:25:49.378Z,-1.21
2019-02-04T00:28:18.353Z,-1.23
2019-02-04T00:30:47.413Z,-1.24
2019-02-04T00:33:16.425Z,-1.26
2019-02-04T00:35:45.408Z,-1.30
2019-02-04T00:38:14.587Z,-1.32
2019-02-04T00:40:43.571Z,-1.34
2019-02-04T00:43:14.635Z,-1.34
2019-02-04T00:45:43.604Z,-1.37
2019-02-04T00:48:12.603Z,-1.39
2019-02-04T00:50:41.585Z,-1.39
2019-02-04T00:53:10.854Z,-1.39
2019-02-04T00:55:39.817Z,-1.42
2019-02-04T00:58:08.830Z,-1.43
2019-02-04T01:00:37.809Z,-1.44
2019-02-04T01:03:06.872Z,-1.45
2019-02-04T01:05:35.873Z,-1.48
2019-02-04T01:08:05.212Z,-1.53
2019-02-04T01:10:34.218Z,-1.54
2019-02-04T01:13:03.214Z,-1.55
2019-02-04T01:15:32.264Z,-1.57
2019-02-04T01:18:01.229Z,-1.60
2019-02-04T01:20:30.207Z,-1.61
2019-02-04T01:22:59.236Z,-1.63
2019-02-04T01:25:28.248Z,-1.65
2019-02-04T01:27:57.218Z,-1.65
2019-02-04T01:30:26.217Z,-1.66
2019-02-04T01:32:55.194Z,-1.66
2019-02-04T01:35:24.174Z,-1.68
2019-02-04T01:37:53.143Z,-1.68
2019-02-04T01:40:25.982Z,-1.67
2019-02-04T01:42:55.371Z,-1.67
2019-02-04T01:45:24.533Z,-1.66
2019-02-04T01:47:53.511Z,-1.66
2019-02-04T01:50:23.521Z,-1.66
2019-02-04T01:52:52.494Z,-1.67
2019-02-04T01:55:21.489Z,-1.67
2019-02-04T01:57:52.772Z,-1.67
2019-02-04T02:00:30.292Z,-1.68
2019-02-04T02:02:59.462Z,-1.68
2019-02-04T02:05:28.459Z,-1.67
2019-02-04T02:07:57.433Z,-1.66
2019-02-04T02:10:26.612Z,-1.65
2019-02-04T02:12:55.642Z,-1.67
2019-02-04T02:15:24.728Z,-1.67
2019-02-04T02:17:53.742Z,-1.67
2019-02-04T02:20:25.016Z,-1.66
2019-02-04T02:22:54.007Z,-1.65
2019-02-04T02:25:23.000Z,-1.63
2019-02-04T02:27:52.107Z,-1.63
2019-02-04T02:30:26.629Z,-1.63
2019-02-04T02:32:55.630Z,-1.64
2019-02-04T02:35:24.611Z,-1.68
2019-02-04T02:37:53.579Z,-1.69
2019-02-04T02:40:25.017Z,-1.72
2019-02-04T02:42:54.007Z,-1.73
2019-02-04T02:45:23.007Z,-1.76
2019-02-04T02:47:52.007Z,-1.77
2019-02-04T02:50:21.031Z,-1.79
2019-02-04T02:52:50.027Z,-1.80
2019-02-04T02:55:19.027Z,-1.82
2019-02-04T02:57:47.991Z,-1.82
2019-02-04T03:00:19.091Z,-1.80
2019-02-04T03:02:48.086Z,-1.78
2019-02-04T03:05:17.106Z,-1.77
2019-02-04T03:07:46.086Z,-1.71
2019-02-04T03:10:17.740Z,-1.69
2019-02-04T03:12:47.104Z,-1.70
2019-02-04T03:15:16.074Z,-1.69
2019-02-04T03:17:52.081Z,-1.68
2019-02-04T03:20:16.759Z,-1.68
2019-02-04T03:22:45.732Z,-1.67
2019-02-04T03:25:14.752Z,-1.65
2019-02-04T03:27:44.008Z,-1.63
2019-02-04T03:30:37.186Z,-1.61
2019-02-04T03:33:06.200Z,-1.59
2019-02-04T03:35:35.236Z,-1.56
2019-02-04T03:38:04.213Z,-1.53
2019-02-04T03:40:33.526Z,-1.50
2019-02-04T03:43:02.542Z,-1.48
2019-02-04T03:45:31.526Z,-1.45
2019-02-04T03:48:05.498Z,-1.43
2019-02-04T03:50:31.303Z,-1.41
2019-02-04T03:53:00.312Z,-1.38
2019-02-04T03:55:29.339Z,-1.35
2019-02-04T03:57:58.301Z,-1.32
2019-02-04T04:00:29.655Z,-1.30
2019-02-04T04:02:58.679Z,-1.27
2019-02-04T04:05:28.172Z,-1.24
2019-02-04T04:07:57.175Z,-1.23
2019-02-04T04:10:26.157Z,-1.21
2019-02-04T04:12:55.130Z,-1.18
2019-02-04T04:15:24.128Z,-1.15
2019-02-04T04:17:53.090Z,-1.14
2019-02-04T04:20:22.261Z,-1.12
2019-02-04T04:22:51.258Z,-1.10
2019-02-04T04:25:20.220Z,-1.08
2019-02-04T04:27:49.231Z,-1.08
2019-02-04T04:30:20.336Z,-1.08
2019-02-04T04:32:49.319Z,-1.09
2019-02-04T04:35:18.316Z,-1.08
2019-02-04T04:37:47.324Z,-1.07
2019-02-04T04:40:16.372Z,-1.04
2019-02-04T04:42:45.370Z,-1.03
2019-02-04T04:45:19.117Z,-0.98
2019-02-04T04:47:48.408Z,-0.96
2019-02-04T04:50:17.385Z,-0.93
2019-02-04T04:52:46.393Z,-0.93
2019-02-04T04:55:18.150Z,-0.91
2019-02-04T04:57:47.129Z,-0.88
2019-02-04T05:00:19.377Z,-0.87
2019-02-04T05:02:48.395Z,-0.86
2019-02-04T05:05:17.376Z,-0.84
2019-02-04T05:07:46.373Z,-0.81
2019-02-04T05:10:16.805Z,-0.79
2019-02-04T05:12:45.813Z,-0.75
2019-02-04T05:15:17.257Z,-0.72
2019-02-04T05:17:46.295Z,-0.70
2019-02-04T05:20:15.667Z,-0.66
2019-02-04T05:22:44.664Z,-0.58
2019-02-04T05:25:13.810Z,-0.50
2019-02-04T05:27:42.804Z,-0.52
2019-02-04T05:30:17.244Z,-0.53
2019-02-04T05:32:46.230Z,-0.52
2019-02-04T05:35:15.234Z,-0.49
2019-02-04T05:37:44.232Z,-0.41
2019-02-04T05:40:14.383Z,-0.32
2019-02-04T05:42:43.367Z,-0.23
2019-02-04T05:45:13.744Z,-0.18
2019-02-04T05:47:42.749Z,-0.13
2019-02-04T05:50:13.493Z,-0.11
2019-02-04T05:52:42.531Z,-0.10
2019-02-04T05:55:11.841Z,-0.13
2019-02-04T05:57:41.289Z,-0.15
2019-02-04T06:00:18.217Z,-0.17
2019-02-04T06:02:47.203Z,-0.18
2019-02-04T06:05:16.228Z,-0.21
2019-02-04T06:07:45.236Z,-0.21
2019-02-04T06:10:14.235Z,-0.22
2019-02-04T06:12:43.237Z,-0.23
2019-02-04T06:15:12.331Z,-0.24
2019-02-04T06:17:41.336Z,-0.24
2019-02-04T06:20:12.963Z,-0.27
2019-02-04T06:22:41.973Z,-0.27
2019-02-04T06:25:11.366Z,-0.28
2019-02-04T06:27:40.369Z,-0.29
2019-02-04T06:30:10.180Z,-0.30
2019-02-04T06:32:39.154Z,-0.31
2019-02-04T06:35:08.148Z,-0.31
2019-02-04T06:37:37.142Z,-0.28
2019-02-04T06:40:06.944Z,-0.27
2019-02-04T06:42:35.968Z,-0.28
2019-02-04T06:45:06.019Z,-0.30
2019-02-04T06:47:35.017Z,-0.32
2019-02-04T06:50:04.188Z,-0.36
2019-02-04T06:52:33.170Z,-0.38
2019-02-04T06:55:02.329Z,-0.41
2019-02-04T06:57:31.330Z,-0.45
2019-02-04T07:00:00.508Z,-0.48
2019-02-04T07:02:29.451Z,-0.50
2019-02-04T07:04:58.499Z,-0.54
2019-02-04T07:07:27.532Z,-0.57
2019-02-04T07:09:56.779Z,-0.57
2019-02-04T07:12:25.803Z,-0.63
2019-02-04T07:14:54.792Z,-0.66
2019-02-04T07:17:23.814Z,-0.68
2019-02-04T07:19:52.803Z,-0.68
2019-02-04T07:22:21.811Z,-0.66
2019-02-04T07:24:51.175Z,-0.64
2019-02-04T07:27:22.417Z,-0.59
2019-02-04T07:29:50.910Z,-0.44
2019-02-04T07:32:19.907Z,-0.25
2019-02-04T07:34:48.928Z,-0.02
2019-02-04T07:37:17.965Z,0.25
2019-02-04T07:39:47.222Z,0.51
2019-02-04T07:42:16.423Z,0.79
2019-02-04T07:44:45.418Z,1.12
2019-02-04T07:47:14.411Z,1.77
2019-02-04T07:49:43.402Z,2.03
2019-02-04T07:52:12.398Z,2.03
2019-02-04T07:54:41.662Z,1.84
2019-02-04T07:57:10.639Z,1.66
2019-02-04T07:59:39.646Z,1.58
2019-02-04T08:02:08.624Z,2.01
2019-02-04T08:04:37.592Z,2.68
2019-02-04T08:07:06.638Z,3.16
2019-02-04T08:09:36.071Z,3.68
2019-02-04T08:12:05.049Z,4.11
2019-02-04T08:14:34.101Z,4.53
2019-02-04T08:17:03.072Z,4.82
2019-02-04T08:19:32.089Z,4.75
2019-02-04T08:22:01.063Z,4.48
2019-02-04T08:24:30.429Z,4.10
2019-02-04T08:26:59.397Z,3.72
2019-02-04T08:29:28.389Z,3.40
2019-02-04T08:31:57.421Z,3.20
2019-02-04T08:34:26.435Z,3.11
2019-02-04T08:36:55.414Z,3.31
2019-02-04T08:39:24.478Z,3.79
2019-02-04T08:41:53.457Z,4.24
2019-02-04T08:44:22.459Z,4.42
2019-02-04T08:46:51.443Z,4.75
2019-02-04T08:49:20.424Z,5.37
2019-02-04T08:51:49.416Z,5.88
2019-02-04T08:54:18.388Z,6.56
2019-02-04T08:56:47.663Z,7.25
2019-02-04T08:59:16.638Z,7.89
2019-02-04T09:01:45.648Z,8.55
2019-02-04T09:04:14.746Z,9.02
2019-02-04T09:06:43.728Z,9.80
2019-02-04T09:09:12.728Z,10.36
2019-02-04T09:11:41.981Z,10.63
2019-02-04T09:14:10.989Z,10.75
2019-02-04T09:16:39.985Z,10.90
2019-02-04T09:19:08.977Z,11.03
2019-02-04T09:21:38.000Z,11.16
2019-02-04T09:24:07.010Z,11.25
2019-02-04T09:26:36.039Z,11.32
2019-02-04T09:29:05.128Z,11.22
2019-02-04T09:31:34.123Z,10.70
2019-02-04T09:34:03.109Z,10.98
2019-02-04T09:36:32.095Z,11.25
2019-02-04T09:39:01.088Z,11.15
2019-02-04T09:41:30.099Z,10.65
2019-02-04T09:43:59.186Z,10.75
2019-02-04T09:46:28.219Z,10.54
2019-02-04T09:48:57.228Z,10.67
2019-02-04T09:51:26.261Z,9.94
2019-02-04T09:53:55.248Z,10.12
2019-02-04T09:56:24.232Z,9.35
2019-02-04T09:58:53.494Z,8.32
2019-02-04T10:01:22.496Z,7.78
2019-02-04T10:03:51.596Z,7.58
2019-02-04T10:06:20.593Z,7.22
2019-02-04T10:08:49.590Z,6.83
2019-02-04T10:11:18.594Z,6.76
2019-02-04T10:13:47.767Z,6.59
2019-02-04T10:16:16.801Z,6.78
2019-02-04T10:18:45.797Z,6.73
2019-02-04T10:21:15.141Z,6.64
2019-02-04T10:23:45.957Z,6.51
2019-02-04T10:26:15.024Z,6.51
2019-02-04T10:28:44.039Z,6.41
2019-02-04T10:31:13.019Z,6.34
2019-02-04T10:33:42.081Z,6.28
2019-02-04T10:36:11.103Z,6.00
2019-02-04T10:38:40.166Z,5.87
2019-02-04T10:41:09.176Z,5.97
2019-02-04T10:43:38.156Z,6.05
2019-02-04T10:46:07.242Z,6.16
2019-02-04T10:48:36.325Z,6.28
2019-02-04T10:51:05.337Z,6.23
2019-02-04T10:53:34.378Z,6.25
2019-02-04T10:56:03.404Z,6.17
2019-02-04T10:58:32.563Z,5.99
2019-02-04T11:01:01.594Z,6.06
2019-02-04T11:03:30.591Z,6.07
2019-02-04T11:05:59.559Z,5.90
2019-02-04T11:08:28.566Z,5.95
2019-02-04T11:10:57.630Z,5.85
2019-02-04T11:13:26.794Z,5.43
2019-02-04T11:15:55.804Z,5.85
2019-02-04T11:18:24.798Z,5.70
2019-02-04T11:20:58.068Z,5.59
2019-02-04T11:23:24.528Z,5.54
2019-02-04T11:25:53.527Z,5.67
2019-02-04T11:28:22.594Z,5.68
2019-02-04T11:30:54.700Z,5.68
2019-02-04T11:33:23.682Z,5.61
2019-02-04T11:35:52.655Z,5.52
2019-02-04T11:38:21.767Z,5.33
2019-02-04T11:40:50.751Z,5.25
2019-02-04T11:43:19.802Z,5.27
2019-02-04T11:45:48.794Z,5.20
2019-02-04T11:48:17.969Z,5.11
2019-02-04T11:50:46.944Z,5.17
2019-02-04T11:53:15.985Z,5.22
2019-02-04T11:55:45.285Z,5.14
2019-02-04T11:58:14.315Z,5.06
2019-02-04T12:00:43.326Z,5.02
2019-02-04T12:03:13.616Z,4.96
2019-02-04T12:05:42.611Z,5.03
2019-02-04T12:08:12.839Z,5.12
2019-02-04T12:11:05.792Z,5.08
2019-02-04T12:13:34.806Z,5.11
2019-02-04T12:16:03.882Z,5.01
2019-02-04T12:18:33.331Z,4.99
2019-02-04T12:21:02.799Z,4.82
2019-02-04T12:23:31.788Z,4.87
2019-02-04T12:26:00.795Z,4.89
2019-02-04T12:28:29.782Z,4.90
2019-02-04T12:30:58.800Z,4.85
2019-02-04T12:33:28.014Z,4.92
2019-02-04T12:35:57.454Z,4.84
2019-02-04T12:38:26.488Z,4.93
2019-02-04T12:40:55.460Z,4.98
2019-02-04T12:43:24.520Z,4.97
2019-02-04T12:45:53.522Z,4.97
2019-02-04T12:48:22.531Z,4.98
2019-02-04T12:50:51.515Z,5.05
2019-02-04T12:53:20.498Z,5.15
2019-02-04T12:55:49.488Z,5.14
2019-02-04T12:58:18.478Z,5.18
2019-02-04T13:00:47.481Z,5.07
2019-02-04T13:03:16.506Z,4.63
2019-02-04T13:05:51.420Z,5.09
2019-02-04T13:08:20.453Z,5.10
2019-02-04T13:10:49.460Z,5.15
2019-02-04T13:13:20.617Z,5.24
2019-02-04T13:15:49.615Z,5.24
2019-02-04T13:18:18.654Z,5.19
2019-02-04T13:20:47.646Z,5.14
2019-02-04T13:23:16.638Z,5.14
2019-02-04T13:25:46.082Z,5.06
2019-02-04T13:28:20.314Z,5.14
2019-02-04T13:30:49.329Z,5.17
2019-02-04T13:33:18.781Z,5.15
2019-02-04T13:35:47.798Z,5.19
2019-02-04T13:38:16.829Z,5.26
2019-02-04T13:40:45.819Z,5.38
2019-02-04T13:43:14.943Z,5.43
2019-02-04T13:45:44.085Z,5.44
2019-02-04T13:48:13.157Z,5.33
2019-02-04T13:50:42.314Z,5.30
2019-02-04T13:53:11.371Z,5.32
2019-02-04T13:55:40.381Z,5.33
2019-02-04T13:58:09.390Z,5.29
2019-02-04T14:00:38.407Z,5.22
2019-02-04T14:03:08.066Z,5.17
2019-02-04T14:05:37.159Z,5.12
2019-02-04T14:08:06.327Z,5.14
2019-02-04T14:10:37.391Z,5.06
2019-02-04T14:13:06.618Z,5.00
2019-02-04T14:15:36.061Z,4.97
2019-02-04T14:18:05.624Z,4.95
2019-02-04T14:20:34.625Z,4.93
2019-02-04T14:23:03.604Z,4.95
2019-02-04T14:25:32.744Z,4.93
2019-02-04T14:28:03.773Z,4.88
2019-02-04T14:30:34.045Z,4.79
2019-02-04T14:33:03.037Z,4.74
2019-02-04T14:35:32.082Z,4.68
2019-02-04T14:38:01.158Z,4.71
2019-02-04T14:40:30.190Z,4.58
2019-02-04T14:43:06.038Z,4.58
2019-02-04T14:46:14.468Z,4.55
2019-02-04T14:49:29.510Z,4.56
2019-02-04T14:52:32.666Z,4.54
2019-02-04T14:55:49.167Z,4.52
2019-02-04T14:59:03.799Z,4.49
2019-02-04T15:01:57.956Z,4.47
2019-02-04T15:04:33.782Z,4.42
2019-02-04T15:07:41.937Z,4.37
2019-02-04T15:10:36.007Z,4.33
2019-02-04T15:13:45.307Z,4.31
2019-02-04T15:16:28.434Z,4.30
2019-02-04T15:19:37.735Z,4.21
2019-02-04T15:22:33.623Z,4.19
2019-02-04T15:25:45.983Z,4.22
2019-02-04T15:29:08.466Z,4.24
2019-02-04T15:31:47.505Z,4.16
2019-02-04T15:35:09.368Z,4.21
2019-02-04T15:38:19.781Z,4.11
2019-02-04T15:41:05.334Z,4.11
2019-02-04T15:43:56.750Z,4.05
2019-02-04T15:47:00.155Z,4.01
2019-02-04T15:50:04.836Z,4.03
2019-02-04T15:52:44.829Z,4.01
2019-02-04T15:55:07.190Z,3.97
2019-02-04T15:57:37.038Z,3.90
2019-02-04T16:00:06.708Z,3.94
2019-02-04T16:02:35.714Z,3.92
2019-02-04T16:05:05.033Z,3.84
2019-02-04T16:07:34.058Z,3.80
2019-02-04T16:10:03.073Z,3.79
2019-02-04T16:12:32.161Z,3.78
2019-02-04T16:15:01.227Z,3.75
2019-02-04T16:17:30.237Z,3.74
2019-02-04T16:19:59.235Z,3.73
2019-02-04T16:22:28.259Z,3.72
2019-02-04T16:24:57.253Z,3.67
2019-02-04T16:27:26.305Z,3.69
2019-02-04T16:29:55.513Z,3.67
2019-02-04T16:32:24.521Z,3.67
2019-02-04T16:34:53.533Z,3.60
2019-02-04T16:37:22.523Z,3.60
2019-02-04T16:39:51.712Z,3.64
2019-02-04T16:42:20.730Z,3.63
2019-02-04T16:44:52.304Z,3.61
2019-02-04T16:47:21.364Z,3.57
2019-02-04T16:49:50.536Z,3.54
2019-02-04T16:52:19.576Z,3.61
2019-02-04T16:54:48.615Z,3.60
2019-02-04T16:57:17.698Z,3.58
2019-02-04T16:59:46.759Z,3.55
2019-02-04T17:02:15.782Z,3.58
2019-02-04T17:04:44.802Z,3.56
2019-02-04T17:07:13.930Z,3.52
2019-02-04T17:09:43.136Z,3.58
2019-02-04T17:12:12.179Z,3.60
2019-02-04T17:14:41.254Z,3.59
2019-02-04T17:17:10.409Z,3.58
2019-02-04T17:19:39.562Z,3.57
2019-02-04T17:22:08.553Z,3.57
2019-02-04T17:24:37.931Z,3.55
2019-02-04T17:27:06.915Z,3.55
2019-02-04T17:29:35.974Z,3.56
2019-02-04T17:32:04.990Z,3.53
2019-02-04T17:34:33.981Z,3.54
2019-02-04T17:37:03.289Z,3.56
2019-02-04T17:39:32.571Z,3.55
2019-02-04T17:42:01.607Z,3.56
2019-02-04T17:44:30.805Z,3.58
2019-02-04T17:46:59.896Z,3.60
2019-02-04T17:49:28.886Z,3.58
2019-02-04T17:51:57.929Z,3.53
2019-02-04T17:54:27.434Z,3.53
2019-02-04T17:56:56.439Z,3.52
2019-02-04T17:59:25.483Z,3.55
2019-02-04T18:01:54.604Z,3.50
2019-02-04T18:04:23.688Z,3.60
2019-02-04T18:06:52.890Z,3.59
2019-02-04T18:09:22.345Z,3.55
2019-02-04T18:11:51.510Z,3.53
2019-02-04T18:14:20.517Z,3.49
2019-02-04T18:16:49.633Z,3.50
2019-02-04T18:19:19.088Z,3.51
2019-02-04T18:21:48.818Z,3.54
2019-02-04T18:24:18.395Z,3.53
2019-02-04T18:26:47.812Z,3.55
2019-02-04T18:29:17.095Z,3.57
2019-02-04T18:31:46.433Z,3.60
2019-02-04T18:34:15.901Z,3.62
2019-02-04T18:36:47.148Z,3.63
2019-02-04T18:39:17.599Z,3.58
2019-02-04T18:41:46.925Z,3.56
2019-02-04T18:44:16.021Z,3.58
2019-02-04T18:46:45.655Z,3.58
2019-02-04T18:49:14.790Z,3.55
2019-02-04T18:51:43.945Z,3.53
2019-02-04T18:54:12.963Z,3.56
2019-02-04T18:56:42.271Z,3.53
2019-02-04T18:59:11.460Z,3.53
2019-02-04T19:01:40.569Z,3.57
2019-02-04T19:04:11.360Z,3.57
2019-02-04T19:06:47.347Z,3.59
2019-02-04T19:09:12.861Z,3.59
2019-02-04T19:11:42.738Z,3.48
2019-02-04T19:14:14.692Z,3.61
2019-02-04T19:16:44.074Z,3.61
2019-02-04T19:19:13.898Z,3.61
2019-02-04T19:21:43.266Z,3.61
2019-02-04T19:24:12.322Z,3.61
2019-02-04T19:26:41.719Z,3.55
2019-02-04T19:29:10.984Z,3.62
2019-02-04T19:31:40.841Z,3.57
2019-02-04T19:34:10.703Z,3.55
2019-02-04T19:36:40.380Z,3.57
2019-02-04T19:39:11.116Z,3.51
2019-02-04T19:41:40.322Z,3.54
2019-02-04T19:44:12.777Z,3.60
2019-02-04T19:46:42.645Z,3.58
2019-02-04T19:49:12.485Z,3.54
2019-02-04T19:51:42.263Z,3.59
2019-02-04T19:54:21.244Z,3.61
2019-02-04T19:56:45.198Z,3.57
2019-02-04T19:59:14.545Z,3.54
2019-02-04T20:01:44.511Z,3.56
2019-02-04T20:04:13.715Z,3.56
2019-02-04T20:06:43.308Z,3.56
2019-02-04T20:09:13.188Z,3.55
2019-02-04T20:11:42.777Z,3.53
2019-02-04T20:14:12.014Z,3.04
2019-02-04T20:16:41.500Z,3.54
2019-02-04T20:19:10.774Z,3.54
2019-02-04T20:21:40.352Z,3.52
2019-02-04T20:24:10.145Z,3.52
2019-02-04T20:26:39.648Z,3.56
2019-02-04T20:29:09.012Z,3.56
2019-02-04T20:31:38.357Z,3.57
2019-02-04T20:34:08.150Z,3.53
2019-02-04T20:36:37.544Z,3.36
2019-02-04T20:39:09.034Z,3.58
2019-02-04T20:41:38.575Z,3.60
2019-02-04T20:44:08.286Z,3.58
2019-02-04T20:46:37.516Z,3.58
2019-02-04T20:49:07.097Z,3.57
2019-02-04T20:51:36.313Z,3.61
2019-02-04T20:54:05.695Z,3.62
2019-02-04T20:56:34.894Z,3.62
2019-02-04T20:59:04.147Z,3.63
2019-02-04T21:01:33.578Z,3.64
2019-02-04T21:04:02.745Z,3.63
2019-02-04T21:06:32.208Z,3.66
2019-02-04T21:09:01.367Z,3.62
2019-02-04T21:11:30.710Z,3.65
2019-02-04T21:14:02.747Z,3.60
2019-02-04T21:16:32.511Z,3.59
2019-02-04T21:19:02.214Z,3.61
2019-02-04T21:21:32.010Z,3.67
2019-02-04T21:24:01.570Z,3.67
2019-02-04T21:26:30.798Z,3.67
2019-02-04T21:29:00.558Z,3.72
2019-02-04T21:31:29.594Z,3.70
2019-02-04T21:33:58.600Z,3.67
2019-02-04T21:36:27.986Z,3.66
2019-02-04T21:38:57.353Z,3.74
2019-02-04T21:41:26.616Z,3.75
2019-02-04T21:43:56.906Z,3.77
2019-02-04T21:46:26.141Z,3.74
2019-02-04T21:48:55.357Z,3.77
2019-02-04T21:51:26.731Z,3.77
2019-02-04T21:53:56.023Z,3.78
2019-02-04T21:56:25.261Z,3.77
2019-02-04T21:58:54.833Z,3.72
2019-02-04T22:01:24.005Z,3.73
2019-02-04T22:03:53.077Z,3.71
2019-02-04T22:06:22.105Z,3.74
2019-02-04T22:08:51.121Z,3.71
2019-02-04T22:11:20.155Z,3.70
2019-02-04T22:13:49.241Z,3.69
2019-02-04T22:16:18.413Z,3.72
2019-02-04T22:18:47.521Z,3.75
2019-02-04T22:21:16.526Z,3.79
2019-02-04T22:23:45.858Z,3.77
2019-02-04T22:26:14.906Z,3.79
2019-02-04T22:28:44.046Z,3.76
2019-02-04T22:31:14.294Z,3.72
2019-02-04T22:33:43.506Z,3.80
2019-02-04T22:36:12.599Z,3.80
2019-02-04T22:38:41.661Z,3.80
2019-02-04T22:41:11.172Z,3.81
2019-02-04T22:43:40.174Z,3.79
2019-02-04T22:46:09.221Z,3.81
2019-02-04T22:48:38.202Z,3.82
2019-02-04T22:51:07.197Z,3.81
2019-02-04T22:53:36.175Z,3.81
2019-02-04T22:56:05.189Z,3.83
2019-02-04T22:58:34.252Z,3.86
2019-02-04T23:01:37.035Z,3.86
2019-02-04T23:04:06.746Z,3.85
2019-02-04T23:06:35.833Z,3.85
2019-02-04T23:09:07.685Z,3.85
2019-02-04T23:11:37.820Z,3.86
2019-02-04T23:14:06.979Z,3.87
2019-02-04T23:16:35.961Z,3.87
2019-02-04T23:19:05.124Z,3.81
2019-02-04T23:21:34.084Z,3.79
2019-02-04T23:24:03.132Z,3.79
2019-02-04T23:26:32.118Z,3.74
2019-02-04T23:29:01.126Z,3.72
2019-02-04T23:31:30.105Z,3.70
2019-02-04T23:33:59.222Z,3.71
2019-02-04T23:36:28.232Z,3.74
2019-02-04T23:38:57.216Z,3.69
2019-02-04T23:41:26.293Z,3.66
2019-02-04T23:43:55.340Z,3.68
2019-02-04T23:46:24.322Z,3.67
2019-02-04T23:48:53.362Z,3.66
2019-02-04T23:51:22.427Z,3.68
2019-02-04T23:53:51.415Z,3.69
2019-02-04T23:56:20.413Z,3.68
2019-02-04T23:58:49.395Z,3.66
